createdAt,value
2022-12-14T00:02:06.820Z,96804.84
2022-12-14T00:04:33.407Z,96735.31
2022-12-14T00:07:02.129Z,96811.28
2022-12-14T00:09:28.805Z,96843.94
2022-12-14T00:11:56.619Z,96845.03
2022-12-14T00:14:24.264Z,96824.59
2022-12-14T00:16:51.113Z,96749.41
2022-12-14T00:19:19.272Z,96807.19
2022-12-14T00:21:46.050Z,96799.31
2022-12-14T00:24:13.064Z,96739.66
2022-12-14T00:26:39.759Z,96769.00
2022-12-14T00:29:06.327Z,96830.75
2022-12-14T00:31:34.144Z,96834.88
2022-12-14T00:34:01.532Z,96816.97
2022-12-14T00:36:31.950Z,96790.16
2022-12-14T00:38:58.909Z,96793.06
2022-12-14T00:41:25.455Z,96791.63
2022-12-14T00:43:52.192Z,96772.00
2022-12-14T00:46:18.865Z,96804.53
2022-12-14T00:48:49.265Z,96805.94
2022-12-14T00:51:15.972Z,96791.88
2022-12-14T00:53:44.784Z,96782.53
2022-12-14T00:56:11.932Z,96754.50
2022-12-14T00:58:39.717Z,96781.78
2022-12-14T01:01:09.061Z,96764.41
2022-12-14T01:03:35.937Z,96726.53
2022-12-14T01:06:05.003Z,96785.06
2022-12-14T01:08:35.991Z,96778.13
2022-12-14T01:11:07.545Z,96750.50
2022-12-14T01:13:35.411Z,96792.00
2022-12-14T01:16:03.792Z,96704.97
2022-12-14T01:18:33.098Z,96715.13
2022-12-14T01:21:20.176Z,96763.47
2022-12-14T01:23:51.622Z,96780.63
2022-12-14T01:26:20.332Z,96783.22
2022-12-14T01:28:52.375Z,96786.13
2022-12-14T01:31:22.134Z,96769.28
2022-12-14T01:33:50.505Z,96784.34
2022-12-14T01:36:19.745Z,96749.81
2022-12-14T01:38:47.531Z,96785.97
2022-12-14T01:41:23.972Z,96775.69
2022-12-14T01:43:56.879Z,96775.31
2022-12-14T01:46:48.515Z,96761.97
2022-12-14T01:49:36.973Z,96704.03
2022-12-14T01:52:18.208Z,96756.09
2022-12-14T01:54:57.035Z,96757.44
2022-12-14T01:57:30.968Z,96730.38
2022-12-14T02:00:03.755Z,96776.81
2022-12-14T02:02:33.906Z,96766.69
2022-12-14T02:05:06.464Z,96735.88
2022-12-14T02:07:33.251Z,96710.34
2022-12-14T02:10:03.371Z,96778.44
2022-12-14T02:12:35.540Z,96770.16
2022-12-14T02:15:02.987Z,96737.78
2022-12-14T02:17:29.715Z,96770.22
2022-12-14T02:19:57.938Z,96708.72
2022-12-14T02:22:43.685Z,96762.41
2022-12-14T02:25:53.533Z,96755.97
2022-12-14T02:29:14.174Z,96745.94
2022-12-14T02:32:10.293Z,96758.88
2022-12-14T02:35:00.055Z,96753.03
2022-12-14T02:37:30.542Z,96751.00
2022-12-14T02:40:21.167Z,96750.16
2022-12-14T02:43:10.985Z,96724.56
2022-12-14T02:45:59.096Z,96729.09
2022-12-14T02:48:30.645Z,96707.44
2022-12-14T02:51:16.259Z,96706.47
2022-12-14T02:54:17.394Z,96732.97
2022-12-14T02:56:50.367Z,96730.91
2022-12-14T02:59:19.617Z,96665.06
2022-12-14T03:01:48.859Z,96719.09
2022-12-14T03:04:18.366Z,96631.47
2022-12-14T03:07:29.906Z,96702.84
2022-12-14T03:10:00.989Z,96678.09
2022-12-14T03:12:27.795Z,96649.59
2022-12-14T03:14:57.275Z,96670.59
2022-12-14T03:17:28.817Z,96687.06
2022-12-14T03:20:10.479Z,96690.84
2022-12-14T03:23:00.581Z,96709.25
2022-12-14T03:25:33.715Z,96681.88
2022-12-14T03:28:13.660Z,96697.56
2022-12-14T03:31:04.320Z,96707.03
2022-12-14T03:33:32.993Z,96690.09
2022-12-14T03:36:12.692Z,96694.38
2022-12-14T03:38:43.038Z,96699.06
2022-12-14T03:41:37.680Z,96708.47
2022-12-14T03:44:29.630Z,96704.25
2022-12-14T03:47:13.182Z,96693.91
2022-12-14T03:50:05.140Z,96690.72
2022-12-14T03:52:53.843Z,96675.91
2022-12-14T03:55:31.110Z,96677.31
2022-12-14T03:58:09.762Z,96682.97
2022-12-14T04:00:47.820Z,96649.00
2022-12-14T04:03:55.388Z,96677.28
2022-12-14T04:06:48.866Z,96675.66
2022-12-14T04:09:15.392Z,96675.72
2022-12-14T04:12:10.634Z,96662.59
2022-12-14T04:15:05.244Z,96601.88
2022-12-14T04:17:58.285Z,96657.38
2022-12-14T04:20:45.563Z,96628.97
2022-12-14T04:23:39.155Z,96650.09
2022-12-14T04:26:13.013Z,96651.47
2022-12-14T04:29:09.723Z,96617.69
2022-12-14T04:31:40.343Z,96565.78
2022-12-14T04:34:07.830Z,96648.72
2022-12-14T04:36:46.642Z,96646.25
2022-12-14T04:39:22.202Z,96651.06
2022-12-14T04:41:56.126Z,96629.47
2022-12-14T04:44:32.255Z,96451.19
2022-12-14T04:47:01.384Z,96630.28
2022-12-14T04:49:55.951Z,96625.81
2022-12-14T04:52:32.017Z,96644.44
2022-12-14T04:55:18.049Z,96641.13
2022-12-14T04:58:12.892Z,96610.91
2022-12-14T05:01:10.575Z,96587.56
2022-12-14T05:04:09.535Z,96596.84
2022-12-14T05:07:12.017Z,96619.84
2022-12-14T05:09:49.458Z,96622.13
2022-12-14T05:12:35.266Z,96611.97
2022-12-14T05:15:15.300Z,96607.16
2022-12-14T05:17:45.586Z,96593.06
2022-12-14T05:20:16.637Z,96588.69
2022-12-14T05:22:43.561Z,96596.41
2022-12-14T05:25:10.516Z,96648.22
2022-12-14T05:27:37.344Z,96622.81
2022-12-14T05:30:07.008Z,96630.63
2022-12-14T05:32:34.048Z,96629.75
2022-12-14T05:35:01.873Z,96637.34
2022-12-14T05:37:28.799Z,96566.78
2022-12-14T05:39:56.256Z,96593.72
2022-12-14T05:42:22.780Z,96538.31
2022-12-14T05:44:50.453Z,96620.00
2022-12-14T05:47:17.561Z,96589.69
2022-12-14T05:49:44.074Z,96588.97
2022-12-14T05:52:10.879Z,96581.91
2022-12-14T05:54:39.049Z,96542.00
2022-12-14T05:57:07.321Z,96558.41
2022-12-14T05:59:33.856Z,96481.59
2022-12-14T06:02:00.517Z,96545.63
2022-12-14T06:04:27.335Z,96550.53
2022-12-14T06:06:53.864Z,96555.81
2022-12-14T06:09:21.082Z,96539.69
2022-12-14T06:11:47.661Z,96541.34
2022-12-14T06:14:14.573Z,96458.47
2022-12-14T06:16:43.314Z,96533.00
2022-12-14T06:19:11.150Z,96485.47
2022-12-14T06:21:41.063Z,96509.00
2022-12-14T06:24:09.853Z,96505.97
2022-12-14T06:26:37.228Z,96470.47
2022-12-14T06:29:04.593Z,96467.22
2022-12-14T06:31:32.761Z,96441.41
2022-12-14T06:34:04.457Z,96502.81
2022-12-14T06:36:35.502Z,96511.88
2022-12-14T06:39:07.271Z,96442.41
2022-12-14T06:41:35.058Z,96503.91
2022-12-14T06:44:08.172Z,96482.31
2022-12-14T06:46:36.299Z,96461.28
2022-12-14T06:49:15.343Z,96421.75
2022-12-14T06:51:42.519Z,96533.09
2022-12-14T06:54:12.212Z,96531.47
2022-12-14T06:56:41.374Z,96529.06
2022-12-14T06:59:09.178Z,96495.88
2022-12-14T07:01:36.927Z,96478.44
2022-12-14T07:04:04.476Z,96527.91
2022-12-14T07:06:38.373Z,96515.56
2022-12-14T07:09:09.330Z,96520.16
2022-12-14T07:11:37.435Z,96528.44
2022-12-14T07:14:08.562Z,96439.28
2022-12-14T07:16:37.035Z,96502.25
2022-12-14T07:19:05.482Z,96486.78
2022-12-14T07:21:32.636Z,96484.84
2022-12-14T07:24:01.163Z,96424.28
2022-12-14T07:26:28.182Z,96504.94
2022-12-14T07:28:55.058Z,96501.66
2022-12-14T07:31:28.956Z,96517.81
2022-12-14T07:33:57.837Z,96509.47
2022-12-14T07:36:27.383Z,96498.41
2022-12-14T07:38:55.636Z,96521.25
2022-12-14T07:41:25.055Z,96489.78
2022-12-14T07:43:53.798Z,96498.22
2022-12-14T07:46:23.487Z,96472.72
2022-12-14T07:48:53.818Z,96424.00
2022-12-14T07:51:26.829Z,96501.84
2022-12-14T07:53:53.442Z,96401.38
2022-12-14T07:56:22.438Z,96418.34
2022-12-14T07:58:51.618Z,96422.56
2022-12-14T08:01:21.238Z,96504.53
2022-12-14T08:03:51.058Z,96517.00
2022-12-14T08:06:19.287Z,96490.50
2022-12-14T08:08:45.857Z,96536.88
2022-12-14T08:11:13.429Z,96496.34
2022-12-14T08:13:44.717Z,96477.19
2022-12-14T08:16:15.847Z,96403.72
2022-12-14T08:18:44.537Z,96450.59
2022-12-14T08:21:14.380Z,96501.09
2022-12-14T08:23:41.671Z,96508.84
2022-12-14T08:26:08.686Z,96490.69
2022-12-14T08:28:36.193Z,96517.28
2022-12-14T08:31:12.854Z,96481.63
2022-12-14T08:33:40.606Z,96516.81
2022-12-14T08:36:08.683Z,96509.47
2022-12-14T08:38:36.942Z,96500.00
2022-12-14T08:41:08.331Z,96437.00
2022-12-14T08:43:36.254Z,96499.81
2022-12-14T08:46:04.080Z,96501.34
2022-12-14T08:48:32.861Z,96507.75
2022-12-14T08:51:04.684Z,96492.66
2022-12-14T08:53:32.637Z,96448.44
2022-12-14T08:56:05.011Z,96457.84
2022-12-14T08:58:33.993Z,96448.03
2022-12-14T09:01:08.616Z,96430.28
2022-12-14T09:03:35.551Z,96454.06
2022-12-14T09:06:04.656Z,96506.59
2022-12-14T09:08:34.164Z,96510.91
2022-12-14T09:11:01.806Z,96520.06
2022-12-14T09:13:29.252Z,96470.88
2022-12-14T09:16:05.758Z,96523.31
2022-12-14T09:18:34.428Z,96521.88
2022-12-14T09:21:01.591Z,96479.44
2022-12-14T09:23:30.578Z,96512.97
2022-12-14T09:26:13.584Z,96502.44
2022-12-14T09:28:42.211Z,96477.03
2022-12-14T09:31:12.755Z,96508.84
2022-12-14T09:33:40.796Z,96410.56
2022-12-14T09:36:16.754Z,96486.97
2022-12-14T09:38:51.001Z,96518.81
2022-12-14T09:41:46.133Z,96463.19
2022-12-14T09:44:36.335Z,96518.09
2022-12-14T09:47:10.831Z,96521.50
2022-12-14T09:49:48.849Z,96521.94
2022-12-14T09:52:21.481Z,96524.88
2022-12-14T09:54:50.286Z,96522.63
2022-12-14T09:57:30.553Z,96499.34
2022-12-14T09:59:57.339Z,96520.47
2022-12-14T10:02:53.998Z,96510.22
2022-12-14T10:05:39.528Z,96508.09
2022-12-14T10:08:29.337Z,96500.28
2022-12-14T10:11:26.463Z,96473.34
2022-12-14T10:14:08.429Z,96518.38
2022-12-14T10:16:51.641Z,96517.34
2022-12-14T10:19:38.455Z,96510.97
2022-12-14T10:22:14.551Z,96505.97
2022-12-14T10:24:50.699Z,96335.69
2022-12-14T10:27:47.717Z,96436.22
2022-12-14T10:30:21.323Z,96524.03
2022-12-14T10:32:52.860Z,96518.34
2022-12-14T10:35:43.425Z,96513.13
2022-12-14T10:38:35.961Z,96531.19
2022-12-14T10:41:15.698Z,96497.53
2022-12-14T10:43:54.459Z,96539.19
2022-12-14T10:46:33.903Z,96529.47
2022-12-14T10:49:27.064Z,96511.47
2022-12-14T10:52:09.445Z,96523.66
2022-12-14T10:54:46.220Z,96525.28
2022-12-14T10:57:23.426Z,96526.63
2022-12-14T11:00:07.934Z,96528.63
2022-12-14T11:02:42.681Z,96466.00
2022-12-14T11:05:36.952Z,96537.44
2022-12-14T11:08:07.529Z,96533.75
2022-12-14T11:10:39.749Z,96518.69
2022-12-14T11:13:13.153Z,96509.59
2022-12-14T11:15:47.939Z,96504.09
2022-12-14T11:18:17.644Z,96505.47
2022-12-14T11:20:56.560Z,96496.94
2022-12-14T11:23:38.946Z,96509.47
2022-12-14T11:26:13.677Z,96509.03
2022-12-14T11:28:49.972Z,96506.81
2022-12-14T11:31:20.213Z,96512.28
2022-12-14T11:33:50.720Z,96512.19
2022-12-14T11:36:37.907Z,96488.16
2022-12-14T11:39:21.652Z,96500.53
2022-12-14T11:41:52.214Z,96471.56
2022-12-14T11:44:18.751Z,96512.56
2022-12-14T11:46:57.908Z,96511.63
2022-12-14T11:49:45.908Z,96507.75
2022-12-14T11:52:21.390Z,96510.72
2022-12-14T11:55:05.709Z,96476.28
2022-12-14T11:57:36.079Z,96491.63
2022-12-14T12:01:26.493Z,96497.56
2022-12-14T12:03:59.250Z,96500.44
2022-12-14T12:06:29.157Z,96506.41
2022-12-14T12:09:00.325Z,96517.06
2022-12-14T12:11:30.354Z,96502.22
2022-12-14T12:14:01.837Z,96458.28
2022-12-14T12:16:30.180Z,96400.09
2022-12-14T12:19:23.290Z,96478.59
2022-12-14T12:21:50.514Z,96480.63
2022-12-14T12:24:27.504Z,96486.09
2022-12-14T12:27:02.793Z,96481.19
2022-12-14T12:29:33.876Z,96510.91
2022-12-14T12:32:03.326Z,96506.03
2022-12-14T12:34:41.020Z,96482.53
2022-12-14T12:37:31.021Z,96513.31
2022-12-14T12:40:10.491Z,96421.84
2022-12-14T12:42:45.403Z,96503.34
2022-12-14T12:45:28.459Z,96416.75
2022-12-14T12:48:04.250Z,96512.66
2022-12-14T12:50:35.740Z,96481.66
2022-12-14T12:53:10.344Z,96477.78
2022-12-14T12:55:45.372Z,96526.31
2022-12-14T12:58:29.620Z,96538.97
2022-12-14T13:01:02.352Z,96528.78
2022-12-14T13:03:38.582Z,96535.53
2022-12-14T13:06:17.900Z,96528.31
2022-12-14T13:08:49.936Z,96508.50
2022-12-14T13:11:27.060Z,96522.78
2022-12-14T13:14:02.020Z,96537.28
2022-12-14T13:16:36.462Z,96515.09
2022-12-14T13:19:50.502Z,96541.00
2022-12-14T13:22:26.138Z,96536.56
2022-12-14T13:24:59.316Z,96507.78
2022-12-14T13:28:08.130Z,96513.91
2022-12-14T13:30:58.204Z,96543.72
2022-12-14T13:33:34.141Z,96549.44
2022-12-14T13:36:10.529Z,96549.00
2022-12-14T13:39:08.761Z,96552.88
2022-12-14T13:41:52.818Z,96554.31
2022-12-14T13:44:40.239Z,96551.94
2022-12-14T13:47:20.536Z,96568.97
2022-12-14T13:50:11.617Z,96531.22
2022-12-14T13:52:44.640Z,96573.19
2022-12-14T13:55:30.704Z,96579.22
2022-12-14T13:58:39.671Z,96577.06
2022-12-14T14:01:12.419Z,96475.41
2022-12-14T14:03:39.576Z,96575.22
2022-12-14T14:06:13.645Z,96578.31
2022-12-14T14:08:42.881Z,96576.88
2022-12-14T14:14:50.839Z,96590.97
2022-12-14T14:17:29.317Z,96568.06
2022-12-14T14:19:58.099Z,96599.25
2022-12-14T14:22:27.576Z,96593.13
2022-12-14T14:25:01.298Z,96602.41
2022-12-14T14:27:51.192Z,96610.56
2022-12-14T14:30:41.011Z,96613.09
2022-12-14T14:33:48.319Z,96621.00
2022-12-14T14:36:30.293Z,96622.63
2022-12-14T14:39:03.284Z,96589.44
2022-12-14T14:41:43.344Z,96611.53
2022-12-14T14:44:22.837Z,96617.19
2022-12-14T14:46:52.582Z,96592.84
2022-12-14T14:49:38.468Z,96583.22
2022-12-14T14:52:39.406Z,96631.22
2022-12-14T14:55:54.445Z,96630.91
2022-12-14T14:58:33.228Z,96646.16
2022-12-14T15:01:13.008Z,96644.22
2022-12-14T15:03:53.864Z,96652.03
2022-12-14T15:06:29.963Z,96613.47
2022-12-14T15:09:17.870Z,96660.03
2022-12-14T15:11:48.918Z,96647.78
2022-12-14T15:14:24.348Z,96632.31
2022-12-14T15:16:51.675Z,96658.06
2022-12-14T15:19:33.706Z,96662.94
2022-12-14T15:22:06.290Z,96651.16
2022-12-14T15:24:39.807Z,96640.19
2022-12-14T15:27:18.585Z,96651.97
2022-12-14T15:29:49.318Z,96662.22
2022-12-14T15:32:18.368Z,96657.91
2022-12-14T15:35:01.334Z,96685.97
2022-12-14T15:37:43.130Z,96690.22
2022-12-14T15:40:22.611Z,96676.25
2022-12-14T15:43:00.164Z,96683.47
2022-12-14T15:45:27.301Z,96686.69
2022-12-14T15:47:54.268Z,96689.94
2022-12-14T15:50:31.559Z,96563.22
2022-12-14T15:53:22.740Z,96676.69
2022-12-14T15:56:00.244Z,96707.31
2022-12-14T15:58:35.208Z,96610.97
2022-12-14T16:01:11.606Z,96716.94
2022-12-14T16:03:42.623Z,96673.81
2022-12-14T16:06:12.091Z,96718.38
2022-12-14T16:08:48.983Z,96582.09
2022-12-14T16:11:47.418Z,96724.75
2022-12-14T16:14:23.101Z,96705.25
2022-12-14T16:16:51.006Z,96730.63
2022-12-14T16:19:28.651Z,96735.41
2022-12-14T16:22:10.484Z,96735.75
2022-12-14T16:24:38.844Z,96731.72
2022-12-14T16:27:18.379Z,96669.97
2022-12-14T16:30:07.374Z,96741.44
2022-12-14T16:32:34.141Z,96696.44
2022-12-14T16:35:01.661Z,96728.75
2022-12-14T16:37:33.329Z,96719.63
2022-12-14T16:40:01.649Z,96747.56
2022-12-14T16:42:32.874Z,96745.38
2022-12-14T16:44:59.762Z,96730.34
2022-12-14T16:47:50.768Z,96772.22
2022-12-14T16:50:55.576Z,96758.91
2022-12-14T16:53:24.427Z,96775.91
2022-12-14T16:56:13.760Z,96767.97
2022-12-14T16:58:41.226Z,96768.69
2022-12-14T17:01:09.990Z,96783.91
2022-12-14T17:03:37.911Z,96748.34
2022-12-14T17:06:06.658Z,96745.34
2022-12-14T17:08:34.454Z,96794.75
2022-12-14T17:11:02.464Z,96793.78
2022-12-14T17:13:29.329Z,96718.53
2022-12-14T17:16:06.064Z,96759.88
2022-12-14T17:18:44.016Z,96808.75
2022-12-14T17:21:19.748Z,96800.13
2022-12-14T17:23:49.418Z,96797.41
2022-12-14T17:26:20.707Z,96806.78
2022-12-14T17:28:49.059Z,96801.75
2022-12-14T17:31:19.102Z,96752.75
2022-12-14T17:33:46.112Z,96810.13
2022-12-14T17:36:12.692Z,96802.31
2022-12-14T17:38:39.309Z,96806.19
2022-12-14T17:41:06.510Z,96814.31
2022-12-14T17:43:34.285Z,96783.47
2022-12-14T17:46:01.479Z,96810.69
2022-12-14T17:48:29.004Z,96778.09
2022-12-14T17:50:56.250Z,96791.03
2022-12-14T17:53:30.355Z,96740.41
2022-12-14T17:55:58.984Z,96739.25
2022-12-14T17:58:25.953Z,96801.69
2022-12-14T18:01:01.903Z,96801.69
2022-12-14T18:03:32.595Z,96770.69
2022-12-14T18:05:59.798Z,96722.66
2022-12-14T18:08:27.573Z,96825.03
2022-12-14T18:10:57.799Z,96829.09
2022-12-14T18:13:24.606Z,96831.56
2022-12-14T18:15:54.041Z,96833.38
2022-12-14T18:18:23.294Z,96766.50
2022-12-14T18:20:53.835Z,96720.31
2022-12-14T18:23:21.836Z,96829.41
2022-12-14T18:25:52.637Z,96814.78
2022-12-14T18:28:28.667Z,96801.81
2022-12-14T18:31:06.602Z,96796.28
2022-12-14T18:33:35.311Z,96817.28
2022-12-14T18:36:01.969Z,96826.38
2022-12-14T18:38:31.280Z,96831.78
2022-12-14T18:40:59.052Z,96818.97
2022-12-14T18:43:28.482Z,96801.00
2022-12-14T18:45:59.253Z,96845.28
2022-12-14T18:48:26.778Z,96811.09
2022-12-14T18:50:54.970Z,96826.84
2022-12-14T18:53:23.318Z,96860.53
2022-12-14T18:55:49.973Z,96872.31
2022-12-14T18:58:25.498Z,96809.78
2022-12-14T19:00:57.627Z,96852.56
2022-12-14T19:03:26.082Z,96864.84
2022-12-14T19:07:05.907Z,96862.72
2022-12-14T19:09:10.081Z,96811.44
2022-12-14T19:11:39.487Z,96880.25
2022-12-14T19:14:06.878Z,96885.81
2022-12-14T19:16:34.085Z,96767.63
2022-12-14T19:19:00.837Z,96812.88
2022-12-14T19:21:32.595Z,96871.38
2022-12-14T19:24:00.666Z,96855.47
2022-12-14T19:26:28.583Z,96893.34
2022-12-14T19:28:56.185Z,96887.38
2022-12-14T19:31:22.836Z,96897.47
2022-12-14T19:33:51.764Z,96835.41
2022-12-14T19:36:18.407Z,96886.22
2022-12-14T19:38:49.297Z,96887.22
2022-12-14T19:41:20.947Z,96905.72
2022-12-14T19:43:48.800Z,96899.88
2022-12-14T19:46:17.572Z,96832.25
2022-12-14T19:48:44.440Z,96877.44
2022-12-14T19:51:13.210Z,96899.25
2022-12-14T19:53:42.726Z,96904.16
2022-12-14T19:56:09.980Z,96858.53
2022-12-14T19:58:37.235Z,96906.13
2022-12-14T20:01:08.187Z,96907.41
2022-12-14T20:03:35.638Z,96910.50
2022-12-14T20:06:04.434Z,96917.66
2022-12-14T20:08:31.856Z,96919.09
2022-12-14T20:11:01.067Z,96881.41
2022-12-14T20:13:30.311Z,96880.63
2022-12-14T20:15:58.618Z,96910.00
2022-12-14T20:18:26.905Z,96925.00
2022-12-14T20:20:53.541Z,96897.53
2022-12-14T20:23:21.724Z,96852.38
2022-12-14T20:25:50.912Z,96901.13
2022-12-14T20:28:17.592Z,96908.53
2022-12-14T20:30:48.472Z,96861.56
2022-12-14T20:33:15.174Z,96904.59
2022-12-14T20:35:42.094Z,96912.06
2022-12-14T20:38:08.883Z,96835.88
2022-12-14T20:40:38.933Z,96912.06
2022-12-14T20:43:12.185Z,96896.34
2022-12-14T20:45:40.563Z,96900.09
2022-12-14T20:48:08.274Z,96916.97
2022-12-14T20:50:37.937Z,96853.63
2022-12-14T20:53:06.755Z,96894.56
2022-12-14T20:55:37.759Z,96930.63
2022-12-14T20:58:05.343Z,96936.50
2022-12-14T21:00:32.196Z,96945.50
2022-12-14T21:02:59.201Z,96896.09
2022-12-14T21:05:26.211Z,96855.28
2022-12-14T21:07:53.244Z,96947.91
2022-12-14T21:10:22.527Z,96957.34
2022-12-14T21:12:50.528Z,96932.81
2022-12-14T21:15:17.588Z,96944.66
2022-12-14T21:17:46.523Z,96853.00
2022-12-14T21:20:13.191Z,96868.09
2022-12-14T21:22:41.462Z,96954.78
2022-12-14T21:25:08.743Z,96944.66
2022-12-14T21:27:40.840Z,96947.91
2022-12-14T21:30:10.046Z,96948.38
2022-12-14T21:32:38.038Z,96859.34
2022-12-14T21:35:05.453Z,96953.94
2022-12-14T21:37:31.995Z,96956.06
2022-12-14T21:40:02.957Z,96892.34
2022-12-14T21:42:30.023Z,96949.88
2022-12-14T21:44:59.172Z,96929.75
2022-12-14T21:47:28.531Z,96903.06
2022-12-14T21:49:55.960Z,96946.97
2022-12-14T21:52:25.332Z,96948.09
2022-12-14T21:54:52.027Z,96860.81
2022-12-14T21:57:49.490Z,96947.28
2022-12-14T22:00:19.263Z,96939.47
2022-12-14T22:02:46.032Z,96941.25
2022-12-14T22:05:13.769Z,96963.72
2022-12-14T22:07:40.807Z,96917.53
2022-12-14T22:10:07.805Z,96956.91
2022-12-14T22:12:34.814Z,96941.44
2022-12-14T22:15:03.573Z,96959.66
2022-12-14T22:17:31.814Z,96910.22
2022-12-14T22:19:59.542Z,96915.63
2022-12-14T22:22:26.120Z,96863.09
2022-12-14T22:24:52.872Z,96892.69
2022-12-14T22:27:23.511Z,96895.44
2022-12-14T22:29:50.220Z,96932.03
2022-12-14T22:32:17.099Z,96892.34
2022-12-14T22:34:43.724Z,96979.53
2022-12-14T22:37:16.715Z,96945.34
2022-12-14T22:39:43.477Z,96943.56
2022-12-14T22:42:10.729Z,96955.75
2022-12-14T22:44:38.030Z,96959.34
2022-12-14T22:47:04.575Z,96959.81
2022-12-14T22:49:31.219Z,96943.88
2022-12-14T22:51:58.729Z,96952.84
2022-12-14T22:54:26.958Z,96962.59
2022-12-14T22:57:04.183Z,96861.16
2022-12-14T22:59:41.807Z,96960.94
2022-12-14T23:02:08.856Z,96929.56
2022-12-14T23:04:38.791Z,96965.50
2022-12-14T23:07:08.820Z,96980.31
2022-12-14T23:09:56.388Z,96892.97
2022-12-14T23:12:41.456Z,96982.72
2022-12-14T23:15:28.012Z,96987.63
2022-12-14T23:18:28.821Z,96915.44
2022-12-14T23:21:14.207Z,96980.94
2022-12-14T23:24:01.063Z,96988.63
2022-12-14T23:26:46.889Z,97001.59
2022-12-14T23:29:32.743Z,96991.53
2022-12-14T23:32:20.748Z,96993.50
2022-12-14T23:35:09.068Z,97008.16
2022-12-14T23:37:55.752Z,96987.00
2022-12-14T23:40:48.943Z,97000.00
2022-12-14T23:43:35.711Z,96993.50
2022-12-14T23:46:25.723Z,96991.22
2022-12-14T23:49:15.638Z,96982.13
2022-12-14T23:52:01.744Z,96974.00
2022-12-14T23:54:48.490Z,96968.78
2022-12-14T23:57:34.383Z,96902.94
